sensor_id;sensor_type;location;lat;lon;timestamp;P1;durP1;ratioP1;P2;durP2;ratioP2
29634;SDS011;16557;54.762;56.068;2023-02-26T00:01:51;10.90;;;4.97;;
29634;SDS011;16557;54.762;56.068;2023-02-26T00:04:21;10.38;;;5.17;;
29634;SDS011;16557;54.762;56.068;2023-02-26T00:06:50;10.98;;;5.40;;
29634;SDS011;16557;54.762;56.068;2023-02-26T00:09:20;7.37;;;5.00;;
29634;SDS011;16557;54.762;56.068;2023-02-26T00:11:50;8.43;;;5.08;;
29634;SDS011;16557;54.762;56.068;2023-02-26T00:14:19;9.23;;;5.40;;
29634;SDS011;16557;54.762;56.068;2023-02-26T00:17:06;8.73;;;4.97;;
29634;SDS011;16557;54.762;56.068;2023-02-26T00:19:27;8.98;;;4.72;;
29634;SDS011;16557;54.762;56.068;2023-02-26T00:21:56;7.03;;;4.50;;
29634;SDS011;16557;54.762;56.068;2023-02-26T00:24:26;8.50;;;4.95;;
29634;SDS011;16557;54.762;56.068;2023-02-26T00:26:55;8.43;;;4.75;;
29634;SDS011;16557;54.762;56.068;2023-02-26T00:29:24;10.43;;;5.95;;
29634;SDS011;16557;54.762;56.068;2023-02-26T00:31:54;9.03;;;4.87;;
29634;SDS011;16557;54.762;56.068;2023-02-26T00:34:23;8.85;;;5.00;;
29634;SDS011;16557;54.762;56.068;2023-02-26T00:37:06;8.98;;;5.25;;
29634;SDS011;16557;54.762;56.068;2023-02-26T00:42:15;8.73;;;4.83;;
29634;SDS011;16557;54.762;56.068;2023-02-26T00:44:45;9.23;;;4.67;;
29634;SDS011;16557;54.762;56.068;2023-02-26T00:50:18;8.43;;;5.62;;
29634;SDS011;16557;54.762;56.068;2023-02-26T00:55:23;9.23;;;5.10;;
29634;SDS011;16557;54.762;56.068;2023-02-26T00:57:52;11.57;;;5.62;;
29634;SDS011;16557;54.762;56.068;2023-02-26T01:00:21;7.95;;;4.42;;
29634;SDS011;16557;54.762;56.068;2023-02-26T01:02:51;10.58;;;5.17;;
29634;SDS011;16557;54.762;56.068;2023-02-26T01:05:20;8.73;;;5.22;;
29634;SDS011;16557;54.762;56.068;2023-02-26T01:10:25;10.40;;;5.20;;
29634;SDS011;16557;54.762;56.068;2023-02-26T01:12:55;10.40;;;5.05;;
29634;SDS011;16557;54.762;56.068;2023-02-26T01:15:25;13.30;;;6.85;;
29634;SDS011;16557;54.762;56.068;2023-02-26T01:17:58;8.73;;;5.40;;
29634;SDS011;16557;54.762;56.068;2023-02-26T01:20:33;9.08;;;5.53;;
29634;SDS011;16557;54.762;56.068;2023-02-26T01:23:03;11.35;;;6.03;;
29634;SDS011;16557;54.762;56.068;2023-02-26T01:25:46;9.28;;;5.83;;
29634;SDS011;16557;54.762;56.068;2023-02-26T01:28:15;11.85;;;5.87;;
29634;SDS011;16557;54.762;56.068;2023-02-26T01:31:06;11.75;;;6.03;;
29634;SDS011;16557;54.762;56.068;2023-02-26T01:33:40;9.83;;;5.47;;
29634;SDS011;16557;54.762;56.068;2023-02-26T01:36:26;9.75;;;5.60;;
29634;SDS011;16557;54.762;56.068;2023-02-26T01:41:35;10.95;;;5.85;;
29634;SDS011;16557;54.762;56.068;2023-02-26T01:49:35;8.13;;;5.12;;
29634;SDS011;16557;54.762;56.068;2023-02-26T01:52:05;9.63;;;5.87;;
29634;SDS011;16557;54.762;56.068;2023-02-26T01:54:36;13.62;;;6.25;;
29634;SDS011;16557;54.762;56.068;2023-02-26T01:57:18;8.80;;;5.80;;
29634;SDS011;16557;54.762;56.068;2023-02-26T01:59:44;10.28;;;5.83;;
29634;SDS011;16557;54.762;56.068;2023-02-26T02:02:21;13.32;;;6.00;;
29634;SDS011;16557;54.762;56.068;2023-02-26T02:04:49;11.35;;;6.20;;
29634;SDS011;16557;54.762;56.068;2023-02-26T02:07:18;12.03;;;6.20;;
29634;SDS011;16557;54.762;56.068;2023-02-26T02:09:48;11.33;;;6.25;;
29634;SDS011;16557;54.762;56.068;2023-02-26T02:15:07;10.08;;;5.87;;
29634;SDS011;16557;54.762;56.068;2023-02-26T02:26:26;12.73;;;7.07;;
29634;SDS011;16557;54.762;56.068;2023-02-26T02:31:50;13.55;;;7.55;;
29634;SDS011;16557;54.762;56.068;2023-02-26T02:34:28;12.53;;;6.75;;
29634;SDS011;16557;54.762;56.068;2023-02-26T02:37:25;12.03;;;7.17;;
29634;SDS011;16557;54.762;56.068;2023-02-26T02:40:18;14.00;;;7.87;;
29634;SDS011;16557;54.762;56.068;2023-02-26T02:43:16;14.13;;;7.10;;
29634;SDS011;16557;54.762;56.068;2023-02-26T02:45:42;13.60;;;7.58;;
29634;SDS011;16557;54.762;56.068;2023-02-26T02:48:19;14.75;;;7.80;;
29634;SDS011;16557;54.762;56.068;2023-02-26T02:51:00;14.83;;;7.85;;
29634;SDS011;16557;54.762;56.068;2023-02-26T02:53:29;13.53;;;7.10;;
29634;SDS011;16557;54.762;56.068;2023-02-26T02:59:02;14.43;;;7.07;;
29634;SDS011;16557;54.762;56.068;2023-02-26T03:01:27;40.52;;;20.75;;
29634;SDS011;16557;54.762;56.068;2023-02-26T03:04:17;16.60;;;7.60;;
29634;SDS011;16557;54.762;56.068;2023-02-26T03:06:34;16.57;;;7.78;;
29634;SDS011;16557;54.762;56.068;2023-02-26T03:09:06;17.73;;;8.35;;
29634;SDS011;16557;54.762;56.068;2023-02-26T03:11:36;15.30;;;7.40;;
29634;SDS011;16557;54.762;56.068;2023-02-26T03:14:06;14.40;;;8.15;;
29634;SDS011;16557;54.762;56.068;2023-02-26T03:16:39;15.80;;;7.87;;
29634;SDS011;16557;54.762;56.068;2023-02-26T03:19:20;15.38;;;6.83;;
29634;SDS011;16557;54.762;56.068;2023-02-26T03:24:34;14.75;;;7.62;;
29634;SDS011;16557;54.762;56.068;2023-02-26T03:27:08;13.30;;;6.87;;
29634;SDS011;16557;54.762;56.068;2023-02-26T03:32:35;11.78;;;6.55;;
29634;SDS011;16557;54.762;56.068;2023-02-26T03:37:51;15.75;;;7.35;;
29634;SDS011;16557;54.762;56.068;2023-02-26T03:40:19;15.48;;;7.00;;
29634;SDS011;16557;54.762;56.068;2023-02-26T03:42:54;13.22;;;7.17;;
29634;SDS011;16557;54.762;56.068;2023-02-26T03:45:39;14.25;;;7.17;;
29634;SDS011;16557;54.762;56.068;2023-02-26T03:48:11;12.82;;;7.20;;
29634;SDS011;16557;54.762;56.068;2023-02-26T03:53:15;14.00;;;7.40;;
29634;SDS011;16557;54.762;56.068;2023-02-26T03:55:50;12.50;;;6.42;;
29634;SDS011;16557;54.762;56.068;2023-02-26T03:58:21;12.15;;;7.15;;
29634;SDS011;16557;54.762;56.068;2023-02-26T04:00:51;14.93;;;7.75;;
29634;SDS011;16557;54.762;56.068;2023-02-26T04:06:01;12.30;;;6.55;;
29634;SDS011;16557;54.762;56.068;2023-02-26T04:08:31;10.95;;;6.78;;
29634;SDS011;16557;54.762;56.068;2023-02-26T04:11:08;12.10;;;6.60;;
29634;SDS011;16557;54.762;56.068;2023-02-26T04:13:39;11.60;;;6.90;;
29634;SDS011;16557;54.762;56.068;2023-02-26T04:16:08;14.38;;;7.17;;
29634;SDS011;16557;54.762;56.068;2023-02-26T04:18:37;11.70;;;6.90;;
29634;SDS011;16557;54.762;56.068;2023-02-26T04:21:10;13.18;;;6.90;;
29634;SDS011;16557;54.762;56.068;2023-02-26T04:23:39;15.23;;;7.87;;
29634;SDS011;16557;54.762;56.068;2023-02-26T04:26:08;15.30;;;7.50;;
29634;SDS011;16557;54.762;56.068;2023-02-26T04:28:39;16.57;;;7.42;;
29634;SDS011;16557;54.762;56.068;2023-02-26T04:31:09;14.18;;;6.85;;
29634;SDS011;16557;54.762;56.068;2023-02-26T04:33:38;15.78;;;6.58;;
29634;SDS011;16557;54.762;56.068;2023-02-26T04:36:07;13.95;;;6.75;;
29634;SDS011;16557;54.762;56.068;2023-02-26T04:38:36;13.43;;;7.62;;
29634;SDS011;16557;54.762;56.068;2023-02-26T04:41:06;14.73;;;6.33;;
29634;SDS011;16557;54.762;56.068;2023-02-26T04:43:35;16.85;;;7.40;;
29634;SDS011;16557;54.762;56.068;2023-02-26T04:46:04;14.70;;;7.45;;
29634;SDS011;16557;54.762;56.068;2023-02-26T04:48:33;12.47;;;6.60;;
29634;SDS011;16557;54.762;56.068;2023-02-26T04:51:03;13.30;;;7.37;;
29634;SDS011;16557;54.762;56.068;2023-02-26T04:53:32;14.03;;;7.03;;
29634;SDS011;16557;54.762;56.068;2023-02-26T04:56:01;21.20;;;11.10;;
29634;SDS011;16557;54.762;56.068;2023-02-26T04:58:31;12.23;;;6.87;;
29634;SDS011;16557;54.762;56.068;2023-02-26T05:01:00;14.83;;;7.78;;
29634;SDS011;16557;54.762;56.068;2023-02-26T05:03:29;11.95;;;7.55;;
29634;SDS011;16557;54.762;56.068;2023-02-26T05:05:58;13.43;;;6.90;;
29634;SDS011;16557;54.762;56.068;2023-02-26T05:08:28;14.65;;;7.30;;
29634;SDS011;16557;54.762;56.068;2023-02-26T05:10:57;15.53;;;6.78;;
29634;SDS011;16557;54.762;56.068;2023-02-26T05:13:28;14.40;;;6.97;;
29634;SDS011;16557;54.762;56.068;2023-02-26T05:15:58;11.63;;;6.53;;
29634;SDS011;16557;54.762;56.068;2023-02-26T05:18:27;13.10;;;6.78;;
29634;SDS011;16557;54.762;56.068;2023-02-26T05:20:56;15.00;;;7.37;;
29634;SDS011;16557;54.762;56.068;2023-02-26T05:23:26;19.00;;;10.28;;
29634;SDS011;16557;54.762;56.068;2023-02-26T05:25:58;16.07;;;8.13;;
29634;SDS011;16557;54.762;56.068;2023-02-26T05:28:28;39.90;;;20.27;;
29634;SDS011;16557;54.762;56.068;2023-02-26T05:30:58;27.70;;;15.55;;
29634;SDS011;16557;54.762;56.068;2023-02-26T05:33:27;32.40;;;17.82;;
29634;SDS011;16557;54.762;56.068;2023-02-26T05:35:56;42.80;;;22.42;;
29634;SDS011;16557;54.762;56.068;2023-02-26T05:38:26;36.08;;;18.25;;
29634;SDS011;16557;54.762;56.068;2023-02-26T05:40:55;15.83;;;6.80;;
29634;SDS011;16557;54.762;56.068;2023-02-26T05:43:25;11.18;;;6.35;;
29634;SDS011;16557;54.762;56.068;2023-02-26T05:45:55;12.98;;;6.67;;
29634;SDS011;16557;54.762;56.068;2023-02-26T05:48:24;13.38;;;6.53;;
29634;SDS011;16557;54.762;56.068;2023-02-26T05:50:54;11.18;;;6.83;;
29634;SDS011;16557;54.762;56.068;2023-02-26T05:53:23;13.70;;;6.70;;
29634;SDS011;16557;54.762;56.068;2023-02-26T05:55:52;14.20;;;6.62;;
29634;SDS011;16557;54.762;56.068;2023-02-26T05:58:23;16.93;;;7.55;;
29634;SDS011;16557;54.762;56.068;2023-02-26T06:00:52;10.15;;;5.97;;
29634;SDS011;16557;54.762;56.068;2023-02-26T06:03:21;11.30;;;6.35;;
29634;SDS011;16557;54.762;56.068;2023-02-26T06:05:50;12.13;;;6.53;;
29634;SDS011;16557;54.762;56.068;2023-02-26T06:08:20;12.70;;;6.70;;
29634;SDS011;16557;54.762;56.068;2023-02-26T06:10:49;10.38;;;6.55;;
29634;SDS011;16557;54.762;56.068;2023-02-26T06:13:19;13.28;;;6.90;;
29634;SDS011;16557;54.762;56.068;2023-02-26T06:15:48;14.75;;;6.25;;
29634;SDS011;16557;54.762;56.068;2023-02-26T06:18:18;10.00;;;6.12;;
29634;SDS011;16557;54.762;56.068;2023-02-26T06:20:47;11.50;;;6.28;;
29634;SDS011;16557;54.762;56.068;2023-02-26T06:23:16;11.15;;;7.17;;
29634;SDS011;16557;54.762;56.068;2023-02-26T06:25:46;8.83;;;5.58;;
29634;SDS011;16557;54.762;56.068;2023-02-26T06:28:17;12.85;;;6.70;;
29634;SDS011;16557;54.762;56.068;2023-02-26T06:30:46;9.78;;;5.90;;
29634;SDS011;16557;54.762;56.068;2023-02-26T06:33:15;12.28;;;6.33;;
29634;SDS011;16557;54.762;56.068;2023-02-26T06:35:44;16.75;;;6.40;;
29634;SDS011;16557;54.762;56.068;2023-02-26T06:38:14;13.08;;;6.55;;
29634;SDS011;16557;54.762;56.068;2023-02-26T06:40:43;14.28;;;6.37;;
29634;SDS011;16557;54.762;56.068;2023-02-26T06:43:14;12.33;;;6.00;;
29634;SDS011;16557;54.762;56.068;2023-02-26T06:45:44;13.10;;;6.60;;
29634;SDS011;16557;54.762;56.068;2023-02-26T06:48:13;12.63;;;7.28;;
29634;SDS011;16557;54.762;56.068;2023-02-26T06:50:42;10.48;;;5.92;;
29634;SDS011;16557;54.762;56.068;2023-02-26T06:53:13;16.25;;;5.95;;
29634;SDS011;16557;54.762;56.068;2023-02-26T06:55:44;14.18;;;6.45;;
29634;SDS011;16557;54.762;56.068;2023-02-26T06:58:14;18.70;;;8.35;;
29634;SDS011;16557;54.762;56.068;2023-02-26T07:00:44;13.75;;;6.42;;
29634;SDS011;16557;54.762;56.068;2023-02-26T07:03:14;12.63;;;5.97;;
29634;SDS011;16557;54.762;56.068;2023-02-26T07:05:44;12.60;;;6.53;;
29634;SDS011;16557;54.762;56.068;2023-02-26T07:08:13;14.35;;;7.55;;
29634;SDS011;16557;54.762;56.068;2023-02-26T07:10:43;12.43;;;5.75;;
29634;SDS011;16557;54.762;56.068;2023-02-26T07:13:15;12.53;;;6.47;;
29634;SDS011;16557;54.762;56.068;2023-02-26T07:15:46;14.93;;;6.55;;
29634;SDS011;16557;54.762;56.068;2023-02-26T07:18:15;14.98;;;8.05;;
29634;SDS011;16557;54.762;56.068;2023-02-26T07:20:44;14.38;;;6.60;;
29634;SDS011;16557;54.762;56.068;2023-02-26T07:23:17;12.98;;;7.17;;
29634;SDS011;16557;54.762;56.068;2023-02-26T07:25:47;14.20;;;6.80;;
29634;SDS011;16557;54.762;56.068;2023-02-26T07:28:18;11.83;;;6.10;;
29634;SDS011;16557;54.762;56.068;2023-02-26T07:30:48;16.12;;;7.17;;
29634;SDS011;16557;54.762;56.068;2023-02-26T07:33:17;17.23;;;6.72;;
29634;SDS011;16557;54.762;56.068;2023-02-26T07:35:46;16.85;;;6.35;;
29634;SDS011;16557;54.762;56.068;2023-02-26T07:38:16;10.98;;;6.80;;
29634;SDS011;16557;54.762;56.068;2023-02-26T07:40:45;10.72;;;6.62;;
29634;SDS011;16557;54.762;56.068;2023-02-26T07:43:15;15.60;;;7.08;;
29634;SDS011;16557;54.762;56.068;2023-02-26T07:45:48;12.60;;;6.58;;
29634;SDS011;16557;54.762;56.068;2023-02-26T07:48:18;11.73;;;6.97;;
29634;SDS011;16557;54.762;56.068;2023-02-26T07:50:49;14.68;;;7.08;;
29634;SDS011;16557;54.762;56.068;2023-02-26T07:53:31;13.10;;;7.47;;
29634;SDS011;16557;54.762;56.068;2023-02-26T07:56:01;14.93;;;7.67;;
29634;SDS011;16557;54.762;56.068;2023-02-26T07:58:30;16.48;;;9.35;;
29634;SDS011;16557;54.762;56.068;2023-02-26T08:01:00;15.55;;;7.65;;
29634;SDS011;16557;54.762;56.068;2023-02-26T08:03:30;18.73;;;8.38;;
29634;SDS011;16557;54.762;56.068;2023-02-26T08:06:00;15.00;;;7.90;;
29634;SDS011;16557;54.762;56.068;2023-02-26T08:08:29;14.30;;;8.50;;
29634;SDS011;16557;54.762;56.068;2023-02-26T08:10:59;28.75;;;8.15;;
29634;SDS011;16557;54.762;56.068;2023-02-26T08:13:29;12.20;;;6.75;;
29634;SDS011;16557;54.762;56.068;2023-02-26T08:15:58;19.35;;;8.58;;
29634;SDS011;16557;54.762;56.068;2023-02-26T08:18:27;14.78;;;7.00;;
29634;SDS011;16557;54.762;56.068;2023-02-26T08:20:58;14.85;;;7.22;;
29634;SDS011;16557;54.762;56.068;2023-02-26T08:23:27;13.15;;;6.92;;
29634;SDS011;16557;54.762;56.068;2023-02-26T08:26:00;17.57;;;7.67;;
29634;SDS011;16557;54.762;56.068;2023-02-26T08:28:31;17.07;;;7.45;;
29634;SDS011;16557;54.762;56.068;2023-02-26T08:31:01;13.10;;;6.45;;
29634;SDS011;16557;54.762;56.068;2023-02-26T08:33:31;14.47;;;6.80;;
29634;SDS011;16557;54.762;56.068;2023-02-26T08:36:00;11.35;;;6.50;;
29634;SDS011;16557;54.762;56.068;2023-02-26T08:38:30;11.28;;;6.12;;
29634;SDS011;16557;54.762;56.068;2023-02-26T08:40:59;11.63;;;6.40;;
29634;SDS011;16557;54.762;56.068;2023-02-26T08:43:29;11.88;;;6.70;;
29634;SDS011;16557;54.762;56.068;2023-02-26T08:45:58;19.07;;;11.45;;
29634;SDS011;16557;54.762;56.068;2023-02-26T08:48:27;11.75;;;6.70;;
29634;SDS011;16557;54.762;56.068;2023-02-26T08:50:56;13.35;;;7.20;;
29634;SDS011;16557;54.762;56.068;2023-02-26T08:53:25;16.10;;;8.53;;
29634;SDS011;16557;54.762;56.068;2023-02-26T08:55:55;14.65;;;6.10;;
29634;SDS011;16557;54.762;56.068;2023-02-26T08:58:24;11.03;;;6.17;;
29634;SDS011;16557;54.762;56.068;2023-02-26T09:00:53;9.98;;;5.53;;
29634;SDS011;16557;54.762;56.068;2023-02-26T09:03:22;10.05;;;5.47;;
29634;SDS011;16557;54.762;56.068;2023-02-26T09:05:51;11.43;;;6.40;;
29634;SDS011;16557;54.762;56.068;2023-02-26T09:08:20;13.10;;;7.10;;
29634;SDS011;16557;54.762;56.068;2023-02-26T09:10:50;10.23;;;5.80;;
29634;SDS011;16557;54.762;56.068;2023-02-26T09:13:19;9.78;;;5.55;;
29634;SDS011;16557;54.762;56.068;2023-02-26T09:15:48;11.18;;;6.20;;
29634;SDS011;16557;54.762;56.068;2023-02-26T09:18:17;10.00;;;5.60;;
29634;SDS011;16557;54.762;56.068;2023-02-26T09:20:46;14.80;;;8.00;;
29634;SDS011;16557;54.762;56.068;2023-02-26T09:23:16;10.68;;;6.45;;
29634;SDS011;16557;54.762;56.068;2023-02-26T09:25:45;14.98;;;7.70;;
29634;SDS011;16557;54.762;56.068;2023-02-26T09:28:16;11.73;;;5.55;;
29634;SDS011;16557;54.762;56.068;2023-02-26T09:30:45;12.47;;;6.42;;
29634;SDS011;16557;54.762;56.068;2023-02-26T09:33:14;8.28;;;5.60;;
29634;SDS011;16557;54.762;56.068;2023-02-26T09:35:46;13.08;;;5.70;;
29634;SDS011;16557;54.762;56.068;2023-02-26T09:38:17;9.75;;;6.30;;
29634;SDS011;16557;54.762;56.068;2023-02-26T09:41:01;11.57;;;6.85;;
29634;SDS011;16557;54.762;56.068;2023-02-26T09:43:47;11.05;;;5.67;;
29634;SDS011;16557;54.762;56.068;2023-02-26T09:49:33;22.62;;;12.63;;
29634;SDS011;16557;54.762;56.068;2023-02-26T09:54:43;13.68;;;8.53;;
29634;SDS011;16557;54.762;56.068;2023-02-26T09:57:19;19.80;;;8.63;;
29634;SDS011;16557;54.762;56.068;2023-02-26T09:59:46;17.87;;;9.48;;
29634;SDS011;16557;54.762;56.068;2023-02-26T10:02:20;20.10;;;12.15;;
29634;SDS011;16557;54.762;56.068;2023-02-26T10:04:55;18.02;;;10.23;;
29634;SDS011;16557;54.762;56.068;2023-02-26T10:07:46;15.78;;;9.50;;
29634;SDS011;16557;54.762;56.068;2023-02-26T10:13:03;15.45;;;10.40;;
29634;SDS011;16557;54.762;56.068;2023-02-26T10:15:38;15.90;;;10.03;;
29634;SDS011;16557;54.762;56.068;2023-02-26T10:18:18;14.80;;;9.93;;
29634;SDS011;16557;54.762;56.068;2023-02-26T10:23:49;15.08;;;10.03;;
29634;SDS011;16557;54.762;56.068;2023-02-26T10:26:24;18.02;;;11.60;;
29634;SDS011;16557;54.762;56.068;2023-02-26T10:31:51;18.65;;;11.83;;
29634;SDS011;16557;54.762;56.068;2023-02-26T10:34:26;19.10;;;12.45;;
29634;SDS011;16557;54.762;56.068;2023-02-26T10:37:12;16.48;;;11.55;;
29634;SDS011;16557;54.762;56.068;2023-02-26T10:39:58;18.98;;;12.58;;
29634;SDS011;16557;54.762;56.068;2023-02-26T10:42:51;18.10;;;12.10;;
29634;SDS011;16557;54.762;56.068;2023-02-26T10:45:34;17.40;;;11.50;;
29634;SDS011;16557;54.762;56.068;2023-02-26T10:51:08;17.23;;;12.43;;
29634;SDS011;16557;54.762;56.068;2023-02-26T10:53:34;24.92;;;16.12;;
29634;SDS011;16557;54.762;56.068;2023-02-26T10:56:05;20.72;;;12.78;;
29634;SDS011;16557;54.762;56.068;2023-02-26T10:58:39;20.15;;;12.78;;
29634;SDS011;16557;54.762;56.068;2023-02-26T11:01:19;18.27;;;13.50;;
29634;SDS011;16557;54.762;56.068;2023-02-26T11:03:54;20.05;;;12.65;;
29634;SDS011;16557;54.762;56.068;2023-02-26T11:06:29;18.82;;;12.50;;
29634;SDS011;16557;54.762;56.068;2023-02-26T11:08:57;19.02;;;12.58;;
29634;SDS011;16557;54.762;56.068;2023-02-26T11:14:21;30.35;;;16.67;;
29634;SDS011;16557;54.762;56.068;2023-02-26T11:16:55;17.95;;;12.40;;
29634;SDS011;16557;54.762;56.068;2023-02-26T11:19:29;15.58;;;9.83;;
29634;SDS011;16557;54.762;56.068;2023-02-26T11:22:00;17.77;;;11.30;;
29634;SDS011;16557;54.762;56.068;2023-02-26T11:24:34;17.92;;;11.28;;
29634;SDS011;16557;54.762;56.068;2023-02-26T11:27:08;15.72;;;10.40;;
29634;SDS011;16557;54.762;56.068;2023-02-26T11:29:44;19.85;;;11.95;;
29634;SDS011;16557;54.762;56.068;2023-02-26T11:32:17;19.30;;;11.35;;
29634;SDS011;16557;54.762;56.068;2023-02-26T11:34:49;17.62;;;11.43;;
29634;SDS011;16557;54.762;56.068;2023-02-26T11:37:19;17.20;;;11.45;;
29634;SDS011;16557;54.762;56.068;2023-02-26T11:40:12;18.45;;;11.20;;
29634;SDS011;16557;54.762;56.068;2023-02-26T11:42:47;20.12;;;12.33;;
29634;SDS011;16557;54.762;56.068;2023-02-26T11:45:21;18.42;;;11.80;;
29634;SDS011;16557;54.762;56.068;2023-02-26T11:47:57;19.35;;;12.68;;
29634;SDS011;16557;54.762;56.068;2023-02-26T11:50:28;15.25;;;10.55;;
29634;SDS011;16557;54.762;56.068;2023-02-26T11:53:05;14.30;;;10.58;;
29634;SDS011;16557;54.762;56.068;2023-02-26T11:55:37;17.05;;;11.65;;
29634;SDS011;16557;54.762;56.068;2023-02-26T11:58:18;16.87;;;11.50;;
29634;SDS011;16557;54.762;56.068;2023-02-26T12:00:52;17.92;;;12.00;;
29634;SDS011;16557;54.762;56.068;2023-02-26T12:03:23;16.55;;;10.38;;
29634;SDS011;16557;54.762;56.068;2023-02-26T12:05:57;17.23;;;10.72;;
29634;SDS011;16557;54.762;56.068;2023-02-26T12:08:33;18.48;;;10.63;;
29634;SDS011;16557;54.762;56.068;2023-02-26T12:16:30;15.23;;;8.98;;
29634;SDS011;16557;54.762;56.068;2023-02-26T12:27:12;14.30;;;8.10;;
29634;SDS011;16557;54.762;56.068;2023-02-26T12:46:07;12.18;;;7.28;;
29634;SDS011;16557;54.762;56.068;2023-02-26T12:52:07;13.53;;;7.33;;
29634;SDS011;16557;54.762;56.068;2023-02-26T12:54:57;13.55;;;7.28;;
29634;SDS011;16557;54.762;56.068;2023-02-26T12:58:01;12.58;;;7.22;;
29634;SDS011;16557;54.762;56.068;2023-02-26T13:09:40;14.30;;;7.55;;
29634;SDS011;16557;54.762;56.068;2023-02-26T13:18:08;13.18;;;7.08;;
29634;SDS011;16557;54.762;56.068;2023-02-26T13:20:53;15.95;;;8.15;;
29634;SDS011;16557;54.762;56.068;2023-02-26T13:23:19;17.70;;;9.23;;
29634;SDS011;16557;54.762;56.068;2023-02-26T13:25:50;15.13;;;8.83;;
29634;SDS011;16557;54.762;56.068;2023-02-26T13:28:34;11.73;;;7.08;;
29634;SDS011;16557;54.762;56.068;2023-02-26T13:31:10;14.18;;;7.33;;
29634;SDS011;16557;54.762;56.068;2023-02-26T13:33:42;14.80;;;8.45;;
29634;SDS011;16557;54.762;56.068;2023-02-26T13:36:14;15.13;;;7.65;;
29634;SDS011;16557;54.762;56.068;2023-02-26T13:41:38;13.88;;;7.47;;
29634;SDS011;16557;54.762;56.068;2023-02-26T13:50:05;13.13;;;7.15;;
29634;SDS011;16557;54.762;56.068;2023-02-26T13:52:51;18.62;;;7.12;;
29634;SDS011;16557;54.762;56.068;2023-02-26T13:55:35;14.50;;;8.08;;
29634;SDS011;16557;54.762;56.068;2023-02-26T13:58:16;11.83;;;6.90;;
29634;SDS011;16557;54.762;56.068;2023-02-26T14:00:57;13.18;;;6.87;;
29634;SDS011;16557;54.762;56.068;2023-02-26T14:03:29;13.60;;;8.13;;
29634;SDS011;16557;54.762;56.068;2023-02-26T14:06:08;13.28;;;7.53;;
29634;SDS011;16557;54.762;56.068;2023-02-26T14:09:01;14.05;;;7.28;;
29634;SDS011;16557;54.762;56.068;2023-02-26T14:14:13;17.85;;;8.93;;
29634;SDS011;16557;54.762;56.068;2023-02-26T14:22:16;17.65;;;8.30;;
29634;SDS011;16557;54.762;56.068;2023-02-26T14:32:54;15.40;;;7.47;;
29634;SDS011;16557;54.762;56.068;2023-02-26T14:35:33;10.75;;;7.47;;
29634;SDS011;16557;54.762;56.068;2023-02-26T14:38:20;12.78;;;7.78;;
29634;SDS011;16557;54.762;56.068;2023-02-26T14:41:05;15.15;;;7.70;;
29634;SDS011;16557;54.762;56.068;2023-02-26T14:46:25;16.23;;;8.58;;
29634;SDS011;16557;54.762;56.068;2023-02-26T14:48:55;14.33;;;7.87;;
29634;SDS011;16557;54.762;56.068;2023-02-26T14:56:57;16.17;;;7.60;;
29634;SDS011;16557;54.762;56.068;2023-02-26T15:05:38;13.53;;;7.72;;
29634;SDS011;16557;54.762;56.068;2023-02-26T15:25:43;14.83;;;7.33;;
29634;SDS011;16557;54.762;56.068;2023-02-26T15:30:49;16.00;;;7.28;;
29634;SDS011;16557;54.762;56.068;2023-02-26T15:33:21;12.37;;;7.22;;
29634;SDS011;16557;54.762;56.068;2023-02-26T15:35:52;17.42;;;7.03;;
29634;SDS011;16557;54.762;56.068;2023-02-26T15:38:23;18.45;;;8.23;;
29634;SDS011;16557;54.762;56.068;2023-02-26T15:40:53;19.15;;;9.78;;
29634;SDS011;16557;54.762;56.068;2023-02-26T15:43:26;12.82;;;6.60;;
29634;SDS011;16557;54.762;56.068;2023-02-26T15:45:56;16.32;;;8.65;;
29634;SDS011;16557;54.762;56.068;2023-02-26T15:48:30;14.23;;;7.97;;
29634;SDS011;16557;54.762;56.068;2023-02-26T15:51:02;13.48;;;7.22;;
29634;SDS011;16557;54.762;56.068;2023-02-26T15:53:39;13.28;;;7.25;;
29634;SDS011;16557;54.762;56.068;2023-02-26T15:56:17;15.78;;;8.80;;
29634;SDS011;16557;54.762;56.068;2023-02-26T15:58:51;13.18;;;7.75;;
29634;SDS011;16557;54.762;56.068;2023-02-26T16:01:26;16.90;;;7.45;;
29634;SDS011;16557;54.762;56.068;2023-02-26T16:03:57;19.17;;;7.72;;
29634;SDS011;16557;54.762;56.068;2023-02-26T16:06:34;12.95;;;7.37;;
29634;SDS011;16557;54.762;56.068;2023-02-26T16:09:04;13.88;;;7.53;;
29634;SDS011;16557;54.762;56.068;2023-02-26T16:11:37;13.95;;;7.05;;
29634;SDS011;16557;54.762;56.068;2023-02-26T16:14:06;13.15;;;7.55;;
29634;SDS011;16557;54.762;56.068;2023-02-26T16:16:42;15.25;;;7.85;;
29634;SDS011;16557;54.762;56.068;2023-02-26T16:19:20;12.85;;;7.42;;
29634;SDS011;16557;54.762;56.068;2023-02-26T16:21:45;15.15;;;7.40;;
29634;SDS011;16557;54.762;56.068;2023-02-26T16:24:16;12.95;;;6.92;;
29634;SDS011;16557;54.762;56.068;2023-02-26T16:26:50;15.78;;;8.08;;
29634;SDS011;16557;54.762;56.068;2023-02-26T16:29:25;11.80;;;6.58;;
29634;SDS011;16557;54.762;56.068;2023-02-26T16:31:58;18.42;;;7.97;;
29634;SDS011;16557;54.762;56.068;2023-02-26T16:40:19;10.72;;;7.25;;
29634;SDS011;16557;54.762;56.068;2023-02-26T16:47:55;14.90;;;8.75;;
29634;SDS011;16557;54.762;56.068;2023-02-26T16:50:26;15.05;;;8.08;;
29634;SDS011;16557;54.762;56.068;2023-02-26T16:53:08;17.45;;;8.45;;
29634;SDS011;16557;54.762;56.068;2023-02-26T16:55:36;13.98;;;7.90;;
29634;SDS011;16557;54.762;56.068;2023-02-26T16:58:07;11.53;;;6.58;;
29634;SDS011;16557;54.762;56.068;2023-02-26T17:00:38;12.80;;;7.55;;
29634;SDS011;16557;54.762;56.068;2023-02-26T17:03:13;11.73;;;7.27;;
29634;SDS011;16557;54.762;56.068;2023-02-26T17:05:55;17.17;;;7.72;;
29634;SDS011;16557;54.762;56.068;2023-02-26T17:08:27;15.55;;;7.28;;
29634;SDS011;16557;54.762;56.068;2023-02-26T17:11:02;14.85;;;8.83;;
29634;SDS011;16557;54.762;56.068;2023-02-26T17:13:36;14.40;;;8.03;;
29634;SDS011;16557;54.762;56.068;2023-02-26T17:16:07;15.85;;;7.67;;
29634;SDS011;16557;54.762;56.068;2023-02-26T17:18:38;11.83;;;7.37;;
29634;SDS011;16557;54.762;56.068;2023-02-26T17:21:08;11.93;;;7.47;;
29634;SDS011;16557;54.762;56.068;2023-02-26T17:23:39;19.00;;;7.75;;
29634;SDS011;16557;54.762;56.068;2023-02-26T17:26:09;14.63;;;8.45;;
29634;SDS011;16557;54.762;56.068;2023-02-26T17:28:40;19.37;;;8.25;;
29634;SDS011;16557;54.762;56.068;2023-02-26T17:31:11;13.08;;;7.15;;
29634;SDS011;16557;54.762;56.068;2023-02-26T17:33:41;15.45;;;8.25;;
29634;SDS011;16557;54.762;56.068;2023-02-26T17:36:14;16.12;;;7.70;;
29634;SDS011;16557;54.762;56.068;2023-02-26T17:38:46;18.67;;;7.90;;
29634;SDS011;16557;54.762;56.068;2023-02-26T17:41:16;15.90;;;7.50;;
29634;SDS011;16557;54.762;56.068;2023-02-26T17:43:46;16.85;;;8.20;;
29634;SDS011;16557;54.762;56.068;2023-02-26T17:46:15;14.43;;;7.50;;
29634;SDS011;16557;54.762;56.068;2023-02-26T17:48:44;12.58;;;8.08;;
29634;SDS011;16557;54.762;56.068;2023-02-26T17:51:14;14.85;;;7.80;;
29634;SDS011;16557;54.762;56.068;2023-02-26T17:53:43;16.05;;;7.25;;
29634;SDS011;16557;54.762;56.068;2023-02-26T17:56:18;16.55;;;9.58;;
29634;SDS011;16557;54.762;56.068;2023-02-26T17:58:45;14.83;;;8.33;;
29634;SDS011;16557;54.762;56.068;2023-02-26T18:01:14;10.93;;;7.22;;